sensor_id;sensor_type;location;lat;lon;timestamp;temperature;humidity
42615;DHT22;28754;47.700;7.924;2023-05-10T00:00:31;11.50;99.90
42615;DHT22;28754;47.700;7.924;2023-05-10T00:03:18;11.50;99.90
42615;DHT22;28754;47.700;7.924;2023-05-10T00:06:05;11.50;99.90
42615;DHT22;28754;47.700;7.924;2023-05-10T00:08:51;11.30;99.90
42615;DHT22;28754;47.700;7.924;2023-05-10T00:11:38;11.30;99.90
42615;DHT22;28754;47.700;7.924;2023-05-10T00:14:25;11.30;99.90
42615;DHT22;28754;47.700;7.924;2023-05-10T00:17:11;11.30;99.90
42615;DHT22;28754;47.700;7.924;2023-05-10T00:19:58;11.30;99.90
42615;DHT22;28754;47.700;7.924;2023-05-10T00:22:45;11.30;99.90
42615;DHT22;28754;47.700;7.924;2023-05-10T00:25:31;11.20;99.90
42615;DHT22;28754;47.700;7.924;2023-05-10T00:28:18;11.20;99.90
42615;DHT22;28754;47.700;7.924;2023-05-10T00:31:08;11.20;99.90
42615;DHT22;28754;47.700;7.924;2023-05-10T00:33:55;11.30;99.90
42615;DHT22;28754;47.700;7.924;2023-05-10T00:36:45;11.30;99.90
42615;DHT22;28754;47.700;7.924;2023-05-10T00:39:32;11.30;99.90
42615;DHT22;28754;47.700;7.924;2023-05-10T00:42:18;11.30;99.90
42615;DHT22;28754;47.700;7.924;2023-05-10T00:45:06;11.20;99.90
42615;DHT22;28754;47.700;7.924;2023-05-10T00:47:53;11.20;99.90
42615;DHT22;28754;47.700;7.924;2023-05-10T00:50:41;11.10;99.90
42615;DHT22;28754;47.700;7.924;2023-05-10T00:53:29;11.20;99.90
42615;DHT22;28754;47.700;7.924;2023-05-10T00:56:18;11.10;99.90
42615;DHT22;28754;47.700;7.924;2023-05-10T00:59:09;11.20;99.90
42615;DHT22;28754;47.700;7.924;2023-05-10T01:01:55;11.20;99.90
42615;DHT22;28754;47.700;7.924;2023-05-10T01:04:43;11.10;99.90
42615;DHT22;28754;47.700;7.924;2023-05-10T01:07:30;11.30;99.90
42615;DHT22;28754;47.700;7.924;2023-05-10T01:10:17;11.20;99.90
42615;DHT22;28754;47.700;7.924;2023-05-10T01:13:05;11.20;99.90
42615;DHT22;28754;47.700;7.924;2023-05-10T01:15:52;11.20;99.90
42615;DHT22;28754;47.700;7.924;2023-05-10T01:18:41;11.10;99.90
42615;DHT22;28754;47.700;7.924;2023-05-10T01:21:51;11.10;99.90
42615;DHT22;28754;47.700;7.924;2023-05-10T01:25:09;11.20;99.90
42615;DHT22;28754;47.700;7.924;2023-05-10T01:34:39;11.10;99.90
42615;DHT22;28754;47.700;7.924;2023-05-10T01:38:06;11.10;99.90
42615;DHT22;28754;47.700;7.924;2023-05-10T01:41:16;11.20;99.90
42615;DHT22;28754;47.700;7.924;2023-05-10T01:44:29;11.10;99.90
42615;DHT22;28754;47.700;7.924;2023-05-10T01:47:32;11.10;99.90
42615;DHT22;28754;47.700;7.924;2023-05-10T01:50:27;11.10;99.90
42615;DHT22;28754;47.700;7.924;2023-05-10T01:53:18;11.00;99.90
42615;DHT22;28754;47.700;7.924;2023-05-10T01:56:08;11.10;99.90
42615;DHT22;28754;47.700;7.924;2023-05-10T01:59:06;11.20;99.90
42615;DHT22;28754;47.700;7.924;2023-05-10T02:02:21;11.10;99.90
42615;DHT22;28754;47.700;7.924;2023-05-10T02:10:15;11.10;99.90
42615;DHT22;28754;47.700;7.924;2023-05-10T02:13:14;11.00;99.90
42615;DHT22;28754;47.700;7.924;2023-05-10T02:16:05;11.10;99.90
42615;DHT22;28754;47.700;7.924;2023-05-10T02:18:56;11.10;99.90
42615;DHT22;28754;47.700;7.924;2023-05-10T02:21:49;11.00;99.90
42615;DHT22;28754;47.700;7.924;2023-05-10T02:24:43;11.10;99.90
42615;DHT22;28754;47.700;7.924;2023-05-10T02:27:49;11.00;99.90
42615;DHT22;28754;47.700;7.924;2023-05-10T02:30:47;11.10;99.90
42615;DHT22;28754;47.700;7.924;2023-05-10T02:33:40;10.90;99.90
42615;DHT22;28754;47.700;7.924;2023-05-10T02:36:35;10.90;99.90
42615;DHT22;28754;47.700;7.924;2023-05-10T02:39:25;11.00;99.90
42615;DHT22;28754;47.700;7.924;2023-05-10T02:42:17;11.00;99.90
42615;DHT22;28754;47.700;7.924;2023-05-10T02:45:10;11.00;99.90
42615;DHT22;28754;47.700;7.924;2023-05-10T02:47:59;11.10;99.90
42615;DHT22;28754;47.700;7.924;2023-05-10T02:50:47;10.90;99.90
42615;DHT22;28754;47.700;7.924;2023-05-10T02:53:41;10.80;99.90
42615;DHT22;28754;47.700;7.924;2023-05-10T02:56:36;10.90;99.90
42615;DHT22;28754;47.700;7.924;2023-05-10T02:59:29;11.00;99.90
42615;DHT22;28754;47.700;7.924;2023-05-10T03:02:16;10.90;99.90
42615;DHT22;28754;47.700;7.924;2023-05-10T03:05:03;10.80;99.90
42615;DHT22;28754;47.700;7.924;2023-05-10T03:07:50;10.80;99.90
42615;DHT22;28754;47.700;7.924;2023-05-10T03:17:51;10.90;99.90
42615;DHT22;28754;47.700;7.924;2023-05-10T03:20:50;10.90;99.90
42615;DHT22;28754;47.700;7.924;2023-05-10T03:23:46;10.90;99.90
42615;DHT22;28754;47.700;7.924;2023-05-10T03:26:49;10.90;99.90
42615;DHT22;28754;47.700;7.924;2023-05-10T03:29:46;10.90;99.90
42615;DHT22;28754;47.700;7.924;2023-05-10T03:32:34;10.90;99.90
42615;DHT22;28754;47.700;7.924;2023-05-10T03:35:21;10.90;99.90
42615;DHT22;28754;47.700;7.924;2023-05-10T03:38:09;10.90;99.90
42615;DHT22;28754;47.700;7.924;2023-05-10T03:40:56;10.90;99.90
42615;DHT22;28754;47.700;7.924;2023-05-10T03:43:46;10.90;99.90
42615;DHT22;28754;47.700;7.924;2023-05-10T03:46:32;10.70;99.90
42615;DHT22;28754;47.700;7.924;2023-05-10T03:49:21;10.80;99.90
42615;DHT22;28754;47.700;7.924;2023-05-10T03:52:08;10.80;99.90
42615;DHT22;28754;47.700;7.924;2023-05-10T03:54:55;10.90;99.90
42615;DHT22;28754;47.700;7.924;2023-05-10T03:57:43;10.90;99.90
42615;DHT22;28754;47.700;7.924;2023-05-10T04:00:43;10.80;99.90
42615;DHT22;28754;47.700;7.924;2023-05-10T04:04:09;10.80;99.90
42615;DHT22;28754;47.700;7.924;2023-05-10T04:06:56;10.70;99.90
42615;DHT22;28754;47.700;7.924;2023-05-10T04:09:42;10.60;99.90
42615;DHT22;28754;47.700;7.924;2023-05-10T04:12:29;10.60;99.90
42615;DHT22;28754;47.700;7.924;2023-05-10T04:15:16;10.50;99.90
42615;DHT22;28754;47.700;7.924;2023-05-10T04:18:03;10.60;99.90
42615;DHT22;28754;47.700;7.924;2023-05-10T04:20:50;10.60;99.90
42615;DHT22;28754;47.700;7.924;2023-05-10T04:23:36;10.70;99.90
42615;DHT22;28754;47.700;7.924;2023-05-10T04:26:23;10.80;99.90
42615;DHT22;28754;47.700;7.924;2023-05-10T04:29:11;10.70;99.90
42615;DHT22;28754;47.700;7.924;2023-05-10T04:31:58;10.60;99.90
42615;DHT22;28754;47.700;7.924;2023-05-10T04:34:45;10.60;99.90
42615;DHT22;28754;47.700;7.924;2023-05-10T04:37:32;10.70;99.90
42615;DHT22;28754;47.700;7.924;2023-05-10T04:40:18;10.70;99.90
42615;DHT22;28754;47.700;7.924;2023-05-10T04:43:06;10.80;99.90
42615;DHT22;28754;47.700;7.924;2023-05-10T04:45:52;10.80;99.90
42615;DHT22;28754;47.700;7.924;2023-05-10T04:48:42;10.80;99.90
42615;DHT22;28754;47.700;7.924;2023-05-10T04:51:29;10.80;99.90
42615;DHT22;28754;47.700;7.924;2023-05-10T04:54:16;10.80;99.90
42615;DHT22;28754;47.700;7.924;2023-05-10T04:57:03;10.60;99.90
42615;DHT22;28754;47.700;7.924;2023-05-10T04:59:50;10.70;99.90
42615;DHT22;28754;47.700;7.924;2023-05-10T05:02:37;10.70;99.90
42615;DHT22;28754;47.700;7.924;2023-05-10T05:05:23;10.80;99.90
42615;DHT22;28754;47.700;7.924;2023-05-10T05:08:10;10.80;99.90
42615;DHT22;28754;47.700;7.924;2023-05-10T05:10:57;10.80;99.90
42615;DHT22;28754;47.700;7.924;2023-05-10T05:13:44;10.80;99.90
42615;DHT22;28754;47.700;7.924;2023-05-10T05:16:31;10.80;99.90
42615;DHT22;28754;47.700;7.924;2023-05-10T05:19:18;10.60;99.90
42615;DHT22;28754;47.700;7.924;2023-05-10T05:22:06;10.60;99.90
42615;DHT22;28754;47.700;7.924;2023-05-10T05:24:55;10.70;99.90
42615;DHT22;28754;47.700;7.924;2023-05-10T05:27:43;10.60;99.90
42615;DHT22;28754;47.700;7.924;2023-05-10T05:30:30;10.50;99.90
42615;DHT22;28754;47.700;7.924;2023-05-10T05:33:16;10.40;99.90
42615;DHT22;28754;47.700;7.924;2023-05-10T05:36:04;10.50;99.90
42615;DHT22;28754;47.700;7.924;2023-05-10T05:38:52;10.40;99.90
42615;DHT22;28754;47.700;7.924;2023-05-10T05:41:38;10.50;99.90
42615;DHT22;28754;47.700;7.924;2023-05-10T05:44:25;10.50;99.90
42615;DHT22;28754;47.700;7.924;2023-05-10T05:47:13;10.50;99.90
42615;DHT22;28754;47.700;7.924;2023-05-10T05:49:59;10.30;99.90
42615;DHT22;28754;47.700;7.924;2023-05-10T05:52:46;10.30;99.90
42615;DHT22;28754;47.700;7.924;2023-05-10T05:55:33;10.30;99.90
42615;DHT22;28754;47.700;7.924;2023-05-10T05:58:21;10.40;99.90
42615;DHT22;28754;47.700;7.924;2023-05-10T06:01:11;10.40;99.90
42615;DHT22;28754;47.700;7.924;2023-05-10T06:03:58;10.30;99.90
42615;DHT22;28754;47.700;7.924;2023-05-10T06:06:44;10.30;99.90
42615;DHT22;28754;47.700;7.924;2023-05-10T06:09:31;10.30;99.90
42615;DHT22;28754;47.700;7.924;2023-05-10T06:12:20;10.30;99.90
42615;DHT22;28754;47.700;7.924;2023-05-10T06:15:07;10.30;99.90
42615;DHT22;28754;47.700;7.924;2023-05-10T06:17:55;10.40;99.90
42615;DHT22;28754;47.700;7.924;2023-05-10T06:20:41;10.40;99.90
42615;DHT22;28754;47.700;7.924;2023-05-10T06:23:29;10.30;99.90
42615;DHT22;28754;47.700;7.924;2023-05-10T06:26:16;10.30;99.90
42615;DHT22;28754;47.700;7.924;2023-05-10T06:29:02;10.30;99.90
42615;DHT22;28754;47.700;7.924;2023-05-10T06:31:49;10.20;99.90
42615;DHT22;28754;47.700;7.924;2023-05-10T06:34:36;10.20;99.90
42615;DHT22;28754;47.700;7.924;2023-05-10T06:37:23;10.20;99.90
42615;DHT22;28754;47.700;7.924;2023-05-10T06:40:10;10.10;99.90
42615;DHT22;28754;47.700;7.924;2023-05-10T06:42:56;10.10;99.90
42615;DHT22;28754;47.700;7.924;2023-05-10T06:45:43;10.20;99.90
42615;DHT22;28754;47.700;7.924;2023-05-10T06:48:30;10.00;99.90
42615;DHT22;28754;47.700;7.924;2023-05-10T06:51:17;10.00;99.90
42615;DHT22;28754;47.700;7.924;2023-05-10T06:54:04;10.00;99.90
42615;DHT22;28754;47.700;7.924;2023-05-10T06:56:50;10.10;99.90
42615;DHT22;28754;47.700;7.924;2023-05-10T06:59:38;10.30;99.90
42615;DHT22;28754;47.700;7.924;2023-05-10T07:02:24;10.40;99.90
42615;DHT22;28754;47.700;7.924;2023-05-10T07:05:11;10.30;99.90
42615;DHT22;28754;47.700;7.924;2023-05-10T07:07:58;10.40;99.90
42615;DHT22;28754;47.700;7.924;2023-05-10T07:10:45;10.30;99.90
42615;DHT22;28754;47.700;7.924;2023-05-10T07:13:32;10.20;99.90
42615;DHT22;28754;47.700;7.924;2023-05-10T07:16:19;10.10;99.90
42615;DHT22;28754;47.700;7.924;2023-05-10T07:19:05;10.20;99.90
42615;DHT22;28754;47.700;7.924;2023-05-10T07:21:52;10.20;99.90
42615;DHT22;28754;47.700;7.924;2023-05-10T07:24:39;10.20;99.90
42615;DHT22;28754;47.700;7.924;2023-05-10T07:27:26;10.30;99.90
42615;DHT22;28754;47.700;7.924;2023-05-10T07:30:13;10.50;99.90
42615;DHT22;28754;47.700;7.924;2023-05-10T07:33:04;10.30;99.90
42615;DHT22;28754;47.700;7.924;2023-05-10T07:35:51;10.30;99.90
42615;DHT22;28754;47.700;7.924;2023-05-10T07:38:37;10.30;99.90
42615;DHT22;28754;47.700;7.924;2023-05-10T07:41:24;10.20;99.90
42615;DHT22;28754;47.700;7.924;2023-05-10T07:44:11;10.30;99.90
42615;DHT22;28754;47.700;7.924;2023-05-10T07:46:57;10.30;99.90
42615;DHT22;28754;47.700;7.924;2023-05-10T07:49:44;10.30;99.90
42615;DHT22;28754;47.700;7.924;2023-05-10T07:52:31;10.50;99.90
42615;DHT22;28754;47.700;7.924;2023-05-10T07:55:18;10.50;99.90
42615;DHT22;28754;47.700;7.924;2023-05-10T07:58:07;10.60;99.90
42615;DHT22;28754;47.700;7.924;2023-05-10T08:00:56;10.60;99.90
42615;DHT22;28754;47.700;7.924;2023-05-10T08:03:43;10.40;99.90
42615;DHT22;28754;47.700;7.924;2023-05-10T08:06:38;10.40;99.90
42615;DHT22;28754;47.700;7.924;2023-05-10T08:09:30;10.50;99.90
42615;DHT22;28754;47.700;7.924;2023-05-10T08:13:03;10.60;99.90
42615;DHT22;28754;47.700;7.924;2023-05-10T08:15:55;10.40;99.90
42615;DHT22;28754;47.700;7.924;2023-05-10T08:18:42;10.20;99.90
42615;DHT22;28754;47.700;7.924;2023-05-10T08:21:29;10.10;99.90
42615;DHT22;28754;47.700;7.924;2023-05-10T08:24:17;10.20;99.90
42615;DHT22;28754;47.700;7.924;2023-05-10T08:27:08;10.30;99.90
42615;DHT22;28754;47.700;7.924;2023-05-10T08:29:54;10.10;99.90
42615;DHT22;28754;47.700;7.924;2023-05-10T08:32:41;9.70;99.90
42615;DHT22;28754;47.700;7.924;2023-05-10T08:35:28;9.80;99.90
42615;DHT22;28754;47.700;7.924;2023-05-10T08:38:14;10.00;99.90
42615;DHT22;28754;47.700;7.924;2023-05-10T08:41:02;10.10;99.90
42615;DHT22;28754;47.700;7.924;2023-05-10T08:43:50;10.30;99.90
42615;DHT22;28754;47.700;7.924;2023-05-10T08:46:41;10.50;99.90
42615;DHT22;28754;47.700;7.924;2023-05-10T08:49:31;10.70;99.90
42615;DHT22;28754;47.700;7.924;2023-05-10T08:52:20;11.00;99.90
42615;DHT22;28754;47.700;7.924;2023-05-10T08:55:09;11.30;99.90
42615;DHT22;28754;47.700;7.924;2023-05-10T08:57:56;11.30;99.90
42615;DHT22;28754;47.700;7.924;2023-05-10T09:00:43;11.20;99.90
42615;DHT22;28754;47.700;7.924;2023-05-10T09:03:30;10.90;99.90
42615;DHT22;28754;47.700;7.924;2023-05-10T09:06:17;10.70;99.90
42615;DHT22;28754;47.700;7.924;2023-05-10T09:09:05;10.70;99.90
42615;DHT22;28754;47.700;7.924;2023-05-10T09:11:52;11.30;99.90
42615;DHT22;28754;47.700;7.924;2023-05-10T09:14:40;11.40;99.90
42615;DHT22;28754;47.700;7.924;2023-05-10T09:17:27;11.30;99.90
42615;DHT22;28754;47.700;7.924;2023-05-10T09:20:16;11.30;99.90
42615;DHT22;28754;47.700;7.924;2023-05-10T09:23:03;11.00;99.90
42615;DHT22;28754;47.700;7.924;2023-05-10T09:26:02;11.10;99.90
42615;DHT22;28754;47.700;7.924;2023-05-10T09:28:56;11.40;99.90
42615;DHT22;28754;47.700;7.924;2023-05-10T09:31:48;12.40;99.90
42615;DHT22;28754;47.700;7.924;2023-05-10T09:34:40;14.30;99.90
42615;DHT22;28754;47.700;7.924;2023-05-10T09:37:31;14.00;99.90
42615;DHT22;28754;47.700;7.924;2023-05-10T09:40:20;13.20;99.90
42615;DHT22;28754;47.700;7.924;2023-05-10T09:43:08;12.50;99.90
42615;DHT22;28754;47.700;7.924;2023-05-10T09:45:57;12.90;99.90
42615;DHT22;28754;47.700;7.924;2023-05-10T09:48:45;13.10;99.90
42615;DHT22;28754;47.700;7.924;2023-05-10T09:51:34;13.20;99.90
42615;DHT22;28754;47.700;7.924;2023-05-10T09:54:21;13.90;99.90
42615;DHT22;28754;47.700;7.924;2023-05-10T09:57:20;14.80;99.90
42615;DHT22;28754;47.700;7.924;2023-05-10T10:00:08;14.80;99.90
42615;DHT22;28754;47.700;7.924;2023-05-10T10:03:01;14.30;99.90
42615;DHT22;28754;47.700;7.924;2023-05-10T10:05:49;14.20;99.90
42615;DHT22;28754;47.700;7.924;2023-05-10T10:08:36;14.00;99.90
42615;DHT22;28754;47.700;7.924;2023-05-10T10:11:24;13.50;99.90
42615;DHT22;28754;47.700;7.924;2023-05-10T10:14:11;13.10;99.90
42615;DHT22;28754;47.700;7.924;2023-05-10T10:17:00;12.90;99.90
42615;DHT22;28754;47.700;7.924;2023-05-10T10:19:48;12.80;99.90
42615;DHT22;28754;47.700;7.924;2023-05-10T10:22:36;13.00;99.90
42615;DHT22;28754;47.700;7.924;2023-05-10T10:25:24;14.00;99.90
42615;DHT22;28754;47.700;7.924;2023-05-10T10:34:27;13.80;99.90
42615;DHT22;28754;47.700;7.924;2023-05-10T10:37:15;13.60;99.90
42615;DHT22;28754;47.700;7.924;2023-05-10T10:40:31;13.40;99.90
42615;DHT22;28754;47.700;7.924;2023-05-10T10:43:24;13.40;99.90
42615;DHT22;28754;47.700;7.924;2023-05-10T10:46:17;13.10;99.90
42615;DHT22;28754;47.700;7.924;2023-05-10T10:49:10;13.30;99.90
42615;DHT22;28754;47.700;7.924;2023-05-10T10:58:00;12.40;99.90
42615;DHT22;28754;47.700;7.924;2023-05-10T11:00:46;13.40;99.90
42615;DHT22;28754;47.700;7.924;2023-05-10T11:03:33;14.60;99.90
42615;DHT22;28754;47.700;7.924;2023-05-10T11:06:32;14.40;99.90
42615;DHT22;28754;47.700;7.924;2023-05-10T11:09:24;13.70;99.90
42615;DHT22;28754;47.700;7.924;2023-05-10T11:12:11;12.70;99.90
42615;DHT22;28754;47.700;7.924;2023-05-10T11:14:58;12.20;99.90
42615;DHT22;28754;47.700;7.924;2023-05-10T11:17:45;12.10;99.90
42615;DHT22;28754;47.700;7.924;2023-05-10T11:20:39;11.80;99.90
42615;DHT22;28754;47.700;7.924;2023-05-10T11:23:31;11.80;99.90
42615;DHT22;28754;47.700;7.924;2023-05-10T11:26:35;12.10;99.90
42615;DHT22;28754;47.700;7.924;2023-05-10T11:29:22;12.80;99.90
42615;DHT22;28754;47.700;7.924;2023-05-10T11:32:09;12.90;99.90
42615;DHT22;28754;47.700;7.924;2023-05-10T11:34:56;13.00;99.90
42615;DHT22;28754;47.700;7.924;2023-05-10T11:37:42;12.90;99.90
42615;DHT22;28754;47.700;7.924;2023-05-10T11:40:35;13.00;99.90
42615;DHT22;28754;47.700;7.924;2023-05-10T11:43:23;13.30;99.90
42615;DHT22;28754;47.700;7.924;2023-05-10T11:46:14;13.50;99.90
42615;DHT22;28754;47.700;7.924;2023-05-10T11:49:04;13.50;99.90
42615;DHT22;28754;47.700;7.924;2023-05-10T11:51:53;13.00;99.90
42615;DHT22;28754;47.700;7.924;2023-05-10T11:55:00;13.10;99.90
42615;DHT22;28754;47.700;7.924;2023-05-10T11:57:46;12.90;99.90
42615;DHT22;28754;47.700;7.924;2023-05-10T12:00:33;13.00;99.90
42615;DHT22;28754;47.700;7.924;2023-05-10T12:03:20;13.10;99.90
42615;DHT22;28754;47.700;7.924;2023-05-10T12:06:07;13.10;99.90
42615;DHT22;28754;47.700;7.924;2023-05-10T12:08:57;12.70;99.90
42615;DHT22;28754;47.700;7.924;2023-05-10T12:11:44;12.30;99.90
42615;DHT22;28754;47.700;7.924;2023-05-10T12:14:34;12.20;99.90
42615;DHT22;28754;47.700;7.924;2023-05-10T12:18:35;12.80;99.90
42615;DHT22;28754;47.700;7.924;2023-05-10T12:21:32;14.20;99.90
42615;DHT22;28754;47.700;7.924;2023-05-10T12:24:26;14.60;99.90
42615;DHT22;28754;47.700;7.924;2023-05-10T12:27:16;13.50;99.90
42615;DHT22;28754;47.700;7.924;2023-05-10T12:30:10;13.40;99.90
42615;DHT22;28754;47.700;7.924;2023-05-10T12:33:08;12.60;99.90
42615;DHT22;28754;47.700;7.924;2023-05-10T12:35:59;12.60;99.90
42615;DHT22;28754;47.700;7.924;2023-05-10T12:38:46;12.30;99.90
42615;DHT22;28754;47.700;7.924;2023-05-10T12:41:36;12.80;99.90
42615;DHT22;28754;47.700;7.924;2023-05-10T12:44:23;13.30;99.90
42615;DHT22;28754;47.700;7.924;2023-05-10T12:47:09;13.10;99.90
42615;DHT22;28754;47.700;7.924;2023-05-10T12:49:57;13.20;99.90
42615;DHT22;28754;47.700;7.924;2023-05-10T12:52:43;13.60;99.90
42615;DHT22;28754;47.700;7.924;2023-05-10T12:55:30;13.60;99.90
42615;DHT22;28754;47.700;7.924;2023-05-10T12:58:17;13.70;99.90
42615;DHT22;28754;47.700;7.924;2023-05-10T13:01:04;13.40;99.90
42615;DHT22;28754;47.700;7.924;2023-05-10T13:03:51;13.90;99.90
42615;DHT22;28754;47.700;7.924;2023-05-10T13:06:41;14.00;99.90
42615;DHT22;28754;47.700;7.924;2023-05-10T13:09:45;13.80;99.90
42615;DHT22;28754;47.700;7.924;2023-05-10T13:12:34;14.20;99.90
42615;DHT22;28754;47.700;7.924;2023-05-10T13:15:21;14.20;99.90
42615;DHT22;28754;47.700;7.924;2023-05-10T13:18:08;13.90;99.90
42615;DHT22;28754;47.700;7.924;2023-05-10T13:20:57;13.60;99.90
42615;DHT22;28754;47.700;7.924;2023-05-10T13:23:47;13.30;99.90
42615;DHT22;28754;47.700;7.924;2023-05-10T13:26:36;13.30;99.90
42615;DHT22;28754;47.700;7.924;2023-05-10T13:29:25;13.40;99.90
42615;DHT22;28754;47.700;7.924;2023-05-10T13:32:12;13.60;99.90
42615;DHT22;28754;47.700;7.924;2023-05-10T13:35:02;13.60;99.90
42615;DHT22;28754;47.700;7.924;2023-05-10T13:37:55;13.50;99.90
42615;DHT22;28754;47.700;7.924;2023-05-10T13:44:41;14.90;99.90
42615;DHT22;28754;47.700;7.924;2023-05-10T13:51:14;15.60;99.90
42615;DHT22;28754;47.700;7.924;2023-05-10T13:54:04;15.50;99.90
42615;DHT22;28754;47.700;7.924;2023-05-10T13:56:51;15.40;99.90
42615;DHT22;28754;47.700;7.924;2023-05-10T13:59:40;15.10;99.90
42615;DHT22;28754;47.700;7.924;2023-05-10T14:02:27;15.30;99.90
42615;DHT22;28754;47.700;7.924;2023-05-10T14:05:14;15.20;99.90
42615;DHT22;28754;47.700;7.924;2023-05-10T14:08:03;14.90;99.90
42615;DHT22;28754;47.700;7.924;2023-05-10T14:10:56;14.90;99.90
42615;DHT22;28754;47.700;7.924;2023-05-10T14:13:45;14.50;99.90
42615;DHT22;28754;47.700;7.924;2023-05-10T14:16:42;14.00;99.90
42615;DHT22;28754;47.700;7.924;2023-05-10T14:19:40;14.30;99.90
42615;DHT22;28754;47.700;7.924;2023-05-10T14:22:26;14.40;99.90
42615;DHT22;28754;47.700;7.924;2023-05-10T14:25:13;14.30;99.90
42615;DHT22;28754;47.700;7.924;2023-05-10T14:28:00;14.30;99.90
42615;DHT22;28754;47.700;7.924;2023-05-10T14:30:47;14.80;99.90
42615;DHT22;28754;47.700;7.924;2023-05-10T14:33:37;15.00;99.90
42615;DHT22;28754;47.700;7.924;2023-05-10T14:36:23;15.00;99.90
42615;DHT22;28754;47.700;7.924;2023-05-10T14:39:10;15.70;99.90
42615;DHT22;28754;47.700;7.924;2023-05-10T14:42:01;15.70;99.90
42615;DHT22;28754;47.700;7.924;2023-05-10T14:44:51;16.00;99.90
42615;DHT22;28754;47.700;7.924;2023-05-10T14:47:38;15.00;99.90
42615;DHT22;28754;47.700;7.924;2023-05-10T14:50:27;15.50;99.90
42615;DHT22;28754;47.700;7.924;2023-05-10T14:53:16;15.60;99.90
42615;DHT22;28754;47.700;7.924;2023-05-10T14:56:03;15.60;99.90
42615;DHT22;28754;47.700;7.924;2023-05-10T14:58:50;15.90;99.90
42615;DHT22;28754;47.700;7.924;2023-05-10T15:01:39;15.70;99.90
42615;DHT22;28754;47.700;7.924;2023-05-10T15:04:28;15.00;99.90
42615;DHT22;28754;47.700;7.924;2023-05-10T15:07:15;15.10;99.90
42615;DHT22;28754;47.700;7.924;2023-05-10T15:10:04;15.30;99.90
42615;DHT22;28754;47.700;7.924;2023-05-10T15:12:57;15.30;99.90
42615;DHT22;28754;47.700;7.924;2023-05-10T15:15:45;15.40;99.90
42615;DHT22;28754;47.700;7.924;2023-05-10T15:18:32;15.30;99.90
42615;DHT22;28754;47.700;7.924;2023-05-10T15:21:18;15.10;99.90
42615;DHT22;28754;47.700;7.924;2023-05-10T15:24:08;14.80;99.90
42615;DHT22;28754;47.700;7.924;2023-05-10T15:27:07;14.50;99.90
42615;DHT22;28754;47.700;7.924;2023-05-10T15:29:59;14.20;99.90
42615;DHT22;28754;47.700;7.924;2023-05-10T15:32:46;13.70;99.90
42615;DHT22;28754;47.700;7.924;2023-05-10T15:35:38;13.70;99.90
42615;DHT22;28754;47.700;7.924;2023-05-10T15:38:52;13.70;99.90
42615;DHT22;28754;47.700;7.924;2023-05-10T15:41:50;13.40;99.90
42615;DHT22;28754;47.700;7.924;2023-05-10T15:44:53;12.80;99.90
42615;DHT22;28754;47.700;7.924;2023-05-10T15:48:12;12.90;99.90
42615;DHT22;28754;47.700;7.924;2023-05-10T15:51:02;13.10;99.90
42615;DHT22;28754;47.700;7.924;2023-05-10T16:02:14;12.70;99.90
42615;DHT22;28754;47.700;7.924;2023-05-10T16:05:03;12.20;99.90
42615;DHT22;28754;47.700;7.924;2023-05-10T16:08:11;12.10;99.90
42615;DHT22;28754;47.700;7.924;2023-05-10T16:11:03;12.40;99.90
42615;DHT22;28754;47.700;7.924;2023-05-10T16:18:34;12.60;99.90
42615;DHT22;28754;47.700;7.924;2023-05-10T16:27:34;13.50;99.90
42615;DHT22;28754;47.700;7.924;2023-05-10T16:36:06;14.20;99.90
42615;DHT22;28754;47.700;7.924;2023-05-10T16:40:45;13.80;99.90
42615;DHT22;28754;47.700;7.924;2023-05-10T16:52:36;12.90;99.90
42615;DHT22;28754;47.700;7.924;2023-05-10T17:04:38;12.90;99.90
42615;DHT22;28754;47.700;7.924;2023-05-10T17:07:31;12.60;99.90
42615;DHT22;28754;47.700;7.924;2023-05-10T17:10:21;12.60;99.90
42615;DHT22;28754;47.700;7.924;2023-05-10T17:13:10;12.50;99.90
42615;DHT22;28754;47.700;7.924;2023-05-10T17:15:59;12.30;99.90
42615;DHT22;28754;47.700;7.924;2023-05-10T17:18:48;12.20;99.90
42615;DHT22;28754;47.700;7.924;2023-05-10T17:21:35;12.00;99.90
42615;DHT22;28754;47.700;7.924;2023-05-10T17:24:22;11.70;99.90
42615;DHT22;28754;47.700;7.924;2023-05-10T17:27:08;11.90;99.90
42615;DHT22;28754;47.700;7.924;2023-05-10T17:29:56;11.80;99.90
42615;DHT22;28754;47.700;7.924;2023-05-10T17:32:43;11.80;99.90
42615;DHT22;28754;47.700;7.924;2023-05-10T17:35:30;11.70;99.90
42615;DHT22;28754;47.700;7.924;2023-05-10T17:38:17;11.80;99.90
42615;DHT22;28754;47.700;7.924;2023-05-10T17:41:13;11.70;99.90
42615;DHT22;28754;47.700;7.924;2023-05-10T17:44:22;11.80;99.90
42615;DHT22;28754;47.700;7.924;2023-05-10T17:51:59;12.00;99.90
42615;DHT22;28754;47.700;7.924;2023-05-10T17:54:52;12.00;99.90
42615;DHT22;28754;47.700;7.924;2023-05-10T17:57:39;12.10;99.90
42615;DHT22;28754;47.700;7.924;2023-05-10T18:00:26;12.10;99.90
42615;DHT22;28754;47.700;7.924;2023-05-10T18:03:13;11.90;99.90
42615;DHT22;28754;47.700;7.924;2023-05-10T18:06:01;11.90;99.90
42615;DHT22;28754;47.700;7.924;2023-05-10T18:08:57;11.80;99.90
42615;DHT22;28754;47.700;7.924;2023-05-10T18:12:11;11.80;99.90
42615;DHT22;28754;47.700;7.924;2023-05-10T18:15:13;12.00;99.90
42615;DHT22;28754;47.700;7.924;2023-05-10T18:18:04;11.80;99.90
42615;DHT22;28754;47.700;7.924;2023-05-10T18:20:51;11.90;99.90
42615;DHT22;28754;47.700;7.924;2023-05-10T18:23:45;11.90;99.90
42615;DHT22;28754;47.700;7.924;2023-05-10T18:26:32;11.70;99.90
42615;DHT22;28754;47.700;7.924;2023-05-10T18:29:25;11.60;99.90
42615;DHT22;28754;47.700;7.924;2023-05-10T18:32:36;11.50;99.90
42615;DHT22;28754;47.700;7.924;2023-05-10T18:39:19;11.50;99.90
42615;DHT22;28754;47.700;7.924;2023-05-10T18:42:23;11.50;99.90
42615;DHT22;28754;47.700;7.924;2023-05-10T18:45:21;11.50;99.90
42615;DHT22;28754;47.700;7.924;2023-05-10T18:48:49;11.30;99.90
42615;DHT22;28754;47.700;7.924;2023-05-10T18:56:29;10.90;99.90
42615;DHT22;28754;47.700;7.924;2023-05-10T19:01:01;10.90;99.90
42615;DHT22;28754;47.700;7.924;2023-05-10T19:04:20;10.90;99.90
42615;DHT22;28754;47.700;7.924;2023-05-10T19:11:50;10.80;99.90
42615;DHT22;28754;47.700;7.924;2023-05-10T19:45:42;10.30;99.90
42615;DHT22;28754;47.700;7.924;2023-05-10T19:49:12;10.30;99.90
42615;DHT22;28754;47.700;7.924;2023-05-10T19:52:04;10.20;99.90
42615;DHT22;28754;47.700;7.924;2023-05-10T19:54:58;10.20;99.90
42615;DHT22;28754;47.700;7.924;2023-05-10T20:00:56;10.10;99.90
42615;DHT22;28754;47.700;7.924;2023-05-10T20:03:42;10.20;99.90
42615;DHT22;28754;47.700;7.924;2023-05-10T20:06:37;10.30;99.90
42615;DHT22;28754;47.700;7.924;2023-05-10T20:09:50;10.20;99.90
42615;DHT22;28754;47.700;7.924;2023-05-10T20:18:22;10.30;99.90
42615;DHT22;28754;47.700;7.924;2023-05-10T20:21:33;10.30;99.90